ROYN/OGN METAR and TAF weather

Enter ICAO airport designator
Station Type Date Time Source
ROYN METAR 2019/09/21 04:19 UTC NOAA

ROYN 210419Z AUTO 30033G43KT 4200 -RA BR SCT020 OVC026 25/22 Q0999 RMK A2952


Station Type Date Time Source
ROYN Decoded METAR 2019/09/21 04:19 UTC NOAA

Yonaguni Airport, Japan (ROYN) 24-28N 122-59E 19M
Sep 21, 2019 - 12:19 AM EDT / 2019.09.21 0419 UTC
Wind: from the WNW (300 degrees) at 38 MPH (33 KT) gusting to 49 MPH (43 KT):0
Visibility: 2 mile(s):0
Sky conditions: overcast
Weather: light rain; mist
Temperature: 77 F (25 C)
Dew Point: 71 F (22 C)
Relative Humidity: 83%
Pressure (altimeter): 29.50 in. Hg (0999 hPa)
ob: ROYN 210419Z AUTO 30033G43KT 4200 -RA BR SCT020 OVC026 25/22 Q0999 RMK A2952
cycle: 4

Station Type Date Time Source
ROYN TAF UTC NOAA

Error!

Example: see airport list